Raleigh, Illinois
Current Conditions -  °F | °C
As of 3:35 PM on Friday 24 Oct 2014 (Local Time) from KHSB Reporting Station
Scattered Clouds Scattered Clouds  
Wind Chill: 69°   Ceiling: Unl
Heat Index: 69°   Visibility: 10mi
Dew Point: 55°   Wind: 5mph
Humidity: 62%   Direction: 290°WNW
Pressure: 30.06"   Gusts: NA
Location:  37.83°N, 88.53°W
Report Text: KHSB 242035Z AUTO 29004KT 10SM SCT041 SCT048 20/13 A3006 RMK AO2 T02030127
Loading
Personal Weather Stations






























Interactive Weather Map New forecast layout! Learn more

10-Day Weather Forecast

Advertisements
Track Severe Weather on mobile